createdAt,value
2022-12-26T00:01:25.615Z,10.70
2022-12-26T00:03:55.819Z,10.70
2022-12-26T00:06:26.353Z,10.60
2022-12-26T00:08:55.006Z,10.60
2022-12-26T00:11:24.420Z,10.60
2022-12-26T00:13:55.617Z,10.60
2022-12-26T00:16:23.968Z,10.60
2022-12-26T00:18:52.599Z,10.60
2022-12-26T00:21:23.761Z,10.60
2022-12-26T00:23:51.815Z,10.60
2022-12-26T00:26:21.142Z,10.70
2022-12-26T00:28:49.499Z,10.70
2022-12-26T00:31:20.880Z,10.70
2022-12-26T00:33:49.379Z,10.70
2022-12-26T00:36:19.726Z,10.70
2022-12-26T00:38:49.517Z,10.70
2022-12-26T00:41:18.183Z,10.70
2022-12-26T00:43:46.310Z,10.60
2022-12-26T00:46:15.271Z,10.60
2022-12-26T00:48:43.594Z,10.70
2022-12-26T00:51:11.945Z,10.60
2022-12-26T00:53:40.235Z,10.60
2022-12-26T00:56:10.735Z,10.50
2022-12-26T00:58:38.877Z,10.60
2022-12-26T01:01:08.884Z,10.60
2022-12-26T01:03:37.007Z,10.50
2022-12-26T01:06:05.928Z,10.60
2022-12-26T01:08:33.913Z,10.60
2022-12-26T01:11:05.403Z,10.60
2022-12-26T01:13:35.250Z,10.60
2022-12-26T01:16:03.923Z,10.60
2022-12-26T01:18:32.004Z,10.60
2022-12-26T01:21:01.122Z,10.70
2022-12-26T01:23:29.245Z,10.50
2022-12-26T01:26:16.695Z,10.60
2022-12-26T01:28:46.601Z,10.70
2022-12-26T01:31:14.599Z,10.60
2022-12-26T01:33:42.756Z,10.60
2022-12-26T01:36:11.096Z,10.60
2022-12-26T01:38:39.209Z,10.60
2022-12-26T01:41:20.865Z,10.60
2022-12-26T01:43:56.275Z,10.60
2022-12-26T01:46:31.904Z,10.60
2022-12-26T01:49:07.585Z,10.60
2022-12-26T01:51:39.412Z,10.60
2022-12-26T01:54:39.277Z,10.60
2022-12-26T01:56:59.420Z,10.60
2022-12-26T01:59:31.901Z,10.60
2022-12-26T02:02:01.300Z,10.60
2022-12-26T02:04:50.364Z,10.60
2022-12-26T02:07:20.218Z,10.60
2022-12-26T02:09:48.469Z,10.60
2022-12-26T02:12:37.552Z,10.60
2022-12-26T02:15:11.177Z,10.50
2022-12-26T02:17:40.183Z,10.50
2022-12-26T02:20:18.543Z,10.70
2022-12-26T02:23:22.505Z,10.60
2022-12-26T02:26:23.488Z,10.60
2022-12-26T02:29:22.336Z,10.60
2022-12-26T02:32:01.780Z,10.60
2022-12-26T02:34:39.863Z,10.60
2022-12-26T02:37:19.204Z,10.60
2022-12-26T02:40:01.022Z,10.60
2022-12-26T02:42:40.305Z,10.60
2022-12-26T02:45:36.698Z,10.80
2022-12-26T02:48:13.560Z,10.70
2022-12-26T02:51:18.861Z,10.70
2022-12-26T02:54:12.760Z,10.70
2022-12-26T02:57:05.171Z,10.70
2022-12-26T03:00:00.467Z,10.70
2022-12-26T03:02:51.918Z,10.70
2022-12-26T03:05:46.149Z,10.70
2022-12-26T03:08:35.878Z,10.60
2022-12-26T03:11:21.847Z,10.70
2022-12-26T03:13:52.015Z,10.70
2022-12-26T03:16:38.639Z,10.70
2022-12-26T03:19:10.926Z,10.70
2022-12-26T03:21:44.401Z,10.60
2022-12-26T03:24:15.410Z,10.60
2022-12-26T03:26:48.867Z,10.50
2022-12-26T03:29:36.597Z,10.50
2022-12-26T03:32:07.083Z,10.50
2022-12-26T03:34:38.587Z,10.40
2022-12-26T03:37:48.739Z,10.50
2022-12-26T03:40:42.410Z,10.50
2022-12-26T03:43:33.825Z,10.60
2022-12-26T03:46:30.252Z,10.70
2022-12-26T03:49:24.536Z,10.70
2022-12-26T03:52:18.331Z,10.70
2022-12-26T03:55:15.915Z,10.70
2022-12-26T03:58:08.726Z,10.70
2022-12-26T04:00:56.511Z,10.70
2022-12-26T04:03:44.792Z,10.80
2022-12-26T04:06:36.644Z,10.80
2022-12-26T04:09:29.043Z,10.80
2022-12-26T04:12:13.828Z,10.80
2022-12-26T04:15:03.498Z,10.80
2022-12-26T04:17:56.391Z,10.80
2022-12-26T04:20:33.283Z,10.90
2022-12-26T04:23:24.672Z,10.90
2022-12-26T04:26:16.214Z,10.90
2022-12-26T04:29:03.133Z,10.90
2022-12-26T04:31:51.826Z,10.90
2022-12-26T04:34:43.100Z,10.90
2022-12-26T04:37:36.459Z,10.90
2022-12-26T04:40:26.267Z,11.00
2022-12-26T04:43:48.354Z,11.00
2022-12-26T04:46:03.233Z,10.90
2022-12-26T04:48:49.085Z,11.00
2022-12-26T04:51:17.112Z,11.00
2022-12-26T04:53:46.541Z,11.00
2022-12-26T04:56:14.808Z,11.10
2022-12-26T04:58:42.849Z,11.00
2022-12-26T05:01:26.356Z,11.10
2022-12-26T05:04:11.817Z,11.10
2022-12-26T05:06:57.261Z,11.10
2022-12-26T05:09:37.488Z,11.10
2022-12-26T05:12:07.582Z,11.10
2022-12-26T05:14:36.773Z,11.00
2022-12-26T05:17:25.264Z,11.00
2022-12-26T05:20:11.369Z,11.00
2022-12-26T05:22:59.365Z,11.00
2022-12-26T05:25:48.581Z,11.00
2022-12-26T05:28:35.719Z,11.00
2022-12-26T05:31:04.502Z,11.00
2022-12-26T05:33:51.140Z,11.00
2022-12-26T05:36:22.609Z,11.00
2022-12-26T05:38:51.372Z,10.90
2022-12-26T05:41:20.508Z,10.80
2022-12-26T05:43:48.544Z,10.70
2022-12-26T05:46:16.586Z,10.60
2022-12-26T05:48:45.979Z,10.70
2022-12-26T05:51:14.248Z,10.50
2022-12-26T05:53:42.280Z,10.40
2022-12-26T05:56:13.512Z,10.40
2022-12-26T05:58:41.946Z,10.30
2022-12-26T06:01:12.052Z,10.30
2022-12-26T06:03:41.451Z,10.30
2022-12-26T06:06:11.813Z,10.20
2022-12-26T06:08:39.983Z,10.20
2022-12-26T06:11:09.301Z,10.10
2022-12-26T06:13:38.050Z,10.10
2022-12-26T06:16:07.509Z,10.10
2022-12-26T06:18:35.806Z,10.10
2022-12-26T06:21:05.697Z,10.10
2022-12-26T06:23:35.654Z,10.10
2022-12-26T06:26:04.147Z,10.10
2022-12-26T06:28:32.563Z,10.10
2022-12-26T06:31:04.507Z,10.10
2022-12-26T06:33:32.711Z,10.10
2022-12-26T06:36:05.923Z,10.70
2022-12-26T06:38:35.849Z,10.10
2022-12-26T06:41:06.830Z,10.10
2022-12-26T06:43:34.872Z,10.10
2022-12-26T06:46:04.674Z,10.00
2022-12-26T06:48:33.401Z,10.30
2022-12-26T06:51:04.943Z,10.10
2022-12-26T06:53:34.722Z,10.10
2022-12-26T06:56:09.646Z,10.10
2022-12-26T06:58:38.287Z,10.10
2022-12-26T07:01:07.748Z,10.20
2022-12-26T07:03:36.744Z,10.10
2022-12-26T07:06:06.120Z,10.10
2022-12-26T07:08:34.331Z,10.10
2022-12-26T07:11:02.482Z,10.10
2022-12-26T07:13:31.885Z,10.10
2022-12-26T07:16:01.107Z,10.10
2022-12-26T07:18:29.070Z,10.10
2022-12-26T07:20:57.101Z,10.10
2022-12-26T07:23:25.127Z,10.10
2022-12-26T07:25:53.173Z,10.10
2022-12-26T07:28:21.103Z,10.10
2022-12-26T07:30:51.198Z,10.10
2022-12-26T07:33:19.242Z,10.10
2022-12-26T07:35:47.396Z,10.10
2022-12-26T07:38:15.414Z,10.10
2022-12-26T07:40:43.431Z,10.10
2022-12-26T07:43:11.407Z,10.10
2022-12-26T07:45:45.377Z,10.10
2022-12-26T07:48:15.671Z,10.10
2022-12-26T07:50:47.039Z,10.10
2022-12-26T07:53:15.531Z,10.10
2022-12-26T07:55:43.563Z,10.10
2022-12-26T07:58:11.622Z,10.20
2022-12-26T08:00:39.808Z,10.10
2022-12-26T08:03:10.239Z,10.00
2022-12-26T08:05:41.026Z,10.00
2022-12-26T08:08:09.673Z,10.20
2022-12-26T08:10:37.681Z,10.00
2022-12-26T08:13:05.706Z,10.10
2022-12-26T08:15:33.723Z,10.10
2022-12-26T08:18:01.704Z,10.10
2022-12-26T08:20:29.703Z,10.10
2022-12-26T08:22:59.026Z,10.10
2022-12-26T08:25:27.033Z,10.20
2022-12-26T08:27:56.598Z,10.20
2022-12-26T08:30:24.803Z,10.20
2022-12-26T08:32:53.120Z,10.20
2022-12-26T08:35:21.124Z,10.20
2022-12-26T08:37:49.333Z,10.30
2022-12-26T08:40:39.791Z,10.20
2022-12-26T08:46:01.109Z,10.20
2022-12-26T08:48:30.913Z,10.30
2022-12-26T08:51:04.039Z,10.30
2022-12-26T08:53:33.185Z,10.30
2022-12-26T08:56:04.023Z,10.30
2022-12-26T08:58:32.742Z,10.30
2022-12-26T09:01:08.698Z,10.40
2022-12-26T09:03:36.768Z,10.40
2022-12-26T09:06:06.453Z,10.50
2022-12-26T09:08:35.570Z,10.50
2022-12-26T09:11:06.069Z,10.50
2022-12-26T09:13:35.548Z,10.50
2022-12-26T09:16:08.654Z,10.50
2022-12-26T09:18:36.792Z,10.50
2022-12-26T09:21:06.320Z,10.60
2022-12-26T09:23:35.105Z,10.50
2022-12-26T09:26:09.341Z,10.50
2022-12-26T09:28:37.896Z,10.60
2022-12-26T09:31:07.935Z,10.50
2022-12-26T09:33:37.589Z,10.60
2022-12-26T09:36:12.483Z,10.60
2022-12-26T09:38:43.107Z,10.60
2022-12-26T09:41:31.133Z,10.60
2022-12-26T09:44:05.108Z,10.60
2022-12-26T09:46:37.575Z,10.60
2022-12-26T09:49:13.153Z,10.60
2022-12-26T09:51:44.480Z,10.50
2022-12-26T09:54:20.848Z,10.60
2022-12-26T09:57:02.311Z,10.60
2022-12-26T09:59:35.397Z,10.60
2022-12-26T10:02:03.492Z,10.60
2022-12-26T10:04:31.721Z,10.60
2022-12-26T10:07:11.488Z,10.60
2022-12-26T10:10:00.863Z,10.60
2022-12-26T10:12:47.361Z,10.60
2022-12-26T10:15:29.003Z,10.70
2022-12-26T10:18:02.736Z,10.80
2022-12-26T10:20:40.383Z,10.90
2022-12-26T10:23:31.328Z,10.90
2022-12-26T10:26:07.149Z,10.90
2022-12-26T10:28:40.645Z,10.90
2022-12-26T10:31:17.596Z,10.90
2022-12-26T10:33:50.222Z,10.90
2022-12-26T10:36:28.000Z,11.00
2022-12-26T10:38:59.415Z,11.00
2022-12-26T10:41:32.309Z,11.00
2022-12-26T10:44:01.725Z,11.10
2022-12-26T10:46:55.811Z,11.10
2022-12-26T10:49:27.301Z,11.10
2022-12-26T10:51:58.465Z,11.20
2022-12-26T10:54:28.387Z,11.20
2022-12-26T10:56:58.433Z,11.20
2022-12-26T10:59:39.758Z,11.20
2022-12-26T11:02:17.884Z,11.20
2022-12-26T11:05:33.162Z,11.20
2022-12-26T11:07:53.296Z,11.10
2022-12-26T11:10:22.962Z,11.20
2022-12-26T11:12:53.989Z,11.30
2022-12-26T11:15:29.944Z,11.30
2022-12-26T11:18:09.352Z,11.30
2022-12-26T11:20:37.654Z,11.30
2022-12-26T11:23:24.178Z,11.30
2022-12-26T11:25:53.751Z,11.30
2022-12-26T11:28:27.554Z,11.30
2022-12-26T11:30:58.049Z,11.30
2022-12-26T11:33:29.108Z,11.30
2022-12-26T11:36:06.428Z,11.30
2022-12-26T11:38:45.532Z,11.30
2022-12-26T11:41:33.036Z,11.40
2022-12-26T11:44:16.682Z,11.40
2022-12-26T11:46:49.741Z,11.50
2022-12-26T11:49:26.818Z,11.50
2022-12-26T11:51:59.314Z,11.50
2022-12-26T11:54:31.364Z,11.60
2022-12-26T11:57:16.210Z,11.50
2022-12-26T11:59:44.609Z,11.60
2022-12-26T12:02:32.902Z,11.60
2022-12-26T12:05:13.315Z,11.70
2022-12-26T12:07:53.906Z,11.70
2022-12-26T12:10:47.813Z,11.70
2022-12-26T12:13:25.270Z,11.70
2022-12-26T12:16:00.920Z,11.70
2022-12-26T12:18:43.271Z,11.60
2022-12-26T12:21:20.265Z,11.60
2022-12-26T12:24:05.364Z,11.60
2022-12-26T12:26:40.928Z,11.50
2022-12-26T12:29:24.013Z,11.50
2022-12-26T12:32:08.456Z,11.50
2022-12-26T12:35:02.289Z,11.40
2022-12-26T12:37:42.861Z,11.30
2022-12-26T12:40:26.374Z,11.20
2022-12-26T12:43:03.273Z,11.10
2022-12-26T12:45:34.401Z,11.10
2022-12-26T12:48:26.754Z,11.30
2022-12-26T12:51:07.808Z,11.10
2022-12-26T12:53:55.791Z,11.10
2022-12-26T12:56:38.419Z,11.60
2022-12-26T12:59:24.609Z,11.00
2022-12-26T13:01:57.045Z,10.90
2022-12-26T13:04:30.521Z,10.90
2022-12-26T13:07:06.130Z,11.30
2022-12-26T13:09:37.878Z,10.90
2022-12-26T13:12:08.141Z,10.90
2022-12-26T13:14:39.592Z,10.90
2022-12-26T13:17:11.163Z,11.10
2022-12-26T13:19:48.688Z,10.90
2022-12-26T13:22:26.023Z,11.00
2022-12-26T13:24:59.183Z,10.90
2022-12-26T13:27:31.616Z,10.90
2022-12-26T13:29:59.643Z,11.10
2022-12-26T13:32:29.383Z,10.80
2022-12-26T13:34:59.783Z,10.80
2022-12-26T13:37:57.930Z,10.90
2022-12-26T13:40:29.692Z,10.80
2022-12-26T13:43:20.320Z,11.30
2022-12-26T13:45:55.154Z,10.80
2022-12-26T13:48:56.158Z,10.80
2022-12-26T13:51:58.281Z,10.80
2022-12-26T13:54:29.615Z,10.80
2022-12-26T13:57:26.831Z,10.80
2022-12-26T14:00:07.516Z,10.80
2022-12-26T14:03:20.790Z,10.80
2022-12-26T14:06:08.347Z,10.80
2022-12-26T14:08:53.001Z,10.80
2022-12-26T14:11:42.511Z,10.70
2022-12-26T14:14:21.690Z,10.70
2022-12-26T14:16:59.084Z,10.70
2022-12-26T14:19:41.329Z,10.70
2022-12-26T14:22:16.849Z,10.70
2022-12-26T14:24:54.353Z,10.70
2022-12-26T14:27:34.100Z,10.70
2022-12-26T14:30:18.443Z,10.80
2022-12-26T14:33:02.799Z,10.70
2022-12-26T14:35:36.895Z,10.70
2022-12-26T14:38:20.016Z,10.70
2022-12-26T14:41:02.290Z,10.60
2022-12-26T14:43:41.322Z,10.50
2022-12-26T14:46:49.374Z,10.40
2022-12-26T14:49:28.116Z,10.40
2022-12-26T14:52:37.526Z,10.30
2022-12-26T14:55:42.912Z,10.20
2022-12-26T14:58:27.847Z,10.20
2022-12-26T15:00:57.109Z,10.10
2022-12-26T15:03:44.661Z,10.00
2022-12-26T15:06:49.391Z,10.00
2022-12-26T15:09:45.843Z,9.90
2022-12-26T15:12:46.726Z,9.80
2022-12-26T15:15:29.316Z,9.60
2022-12-26T15:18:23.109Z,9.60
2022-12-26T15:21:30.727Z,9.60
2022-12-26T15:24:18.296Z,9.50
2022-12-26T15:27:22.263Z,9.50
2022-12-26T15:30:06.248Z,9.50
2022-12-26T15:32:40.452Z,9.50
2022-12-26T15:35:22.400Z,9.50
2022-12-26T15:38:11.749Z,9.70
2022-12-26T15:40:46.369Z,9.60
2022-12-26T15:43:36.515Z,9.60
2022-12-26T15:46:23.913Z,9.70
2022-12-26T15:49:07.009Z,9.50
2022-12-26T15:51:52.322Z,9.50
2022-12-26T15:54:41.973Z,9.50
2022-12-26T15:57:19.767Z,9.30
2022-12-26T16:00:12.694Z,9.20
2022-12-26T16:02:49.452Z,9.10
2022-12-26T16:05:38.705Z,9.10
2022-12-26T16:08:31.598Z,9.10
2022-12-26T16:11:14.567Z,9.00
2022-12-26T16:14:02.521Z,9.00
2022-12-26T16:16:34.492Z,8.90
2022-12-26T16:19:20.678Z,8.90
2022-12-26T16:22:10.270Z,8.90
2022-12-26T16:24:40.859Z,8.70
2022-12-26T16:27:10.625Z,8.70
2022-12-26T16:29:48.139Z,9.10
2022-12-26T16:32:20.051Z,8.10
2022-12-26T16:34:49.434Z,8.50
2022-12-26T16:37:21.176Z,8.90
2022-12-26T16:40:17.947Z,8.60
2022-12-26T16:42:54.937Z,8.60
2022-12-26T16:45:26.199Z,8.90
2022-12-26T16:47:54.895Z,8.70
2022-12-26T16:50:25.129Z,8.60
2022-12-26T16:53:04.845Z,8.50
2022-12-26T16:55:39.641Z,8.40
2022-12-26T16:58:20.061Z,8.30
2022-12-26T17:00:59.511Z,8.30
2022-12-26T17:03:35.294Z,8.20
2022-12-26T17:06:08.679Z,8.40
2022-12-26T17:08:40.758Z,8.20
2022-12-26T17:11:09.238Z,8.20
2022-12-26T17:13:37.424Z,8.20
2022-12-26T17:16:11.381Z,8.20
2022-12-26T17:18:46.741Z,8.20
2022-12-26T17:21:29.013Z,8.20
2022-12-26T17:24:27.495Z,8.20
2022-12-26T17:27:10.735Z,8.10
2022-12-26T17:29:50.778Z,8.00
2022-12-26T17:32:29.606Z,8.00
2022-12-26T17:35:01.517Z,7.90
2022-12-26T17:37:29.881Z,7.90
2022-12-26T17:40:09.408Z,7.90
2022-12-26T17:42:47.658Z,7.90
2022-12-26T17:45:21.800Z,7.80
2022-12-26T17:47:53.112Z,7.80
2022-12-26T17:50:21.688Z,7.80
2022-12-26T17:52:50.193Z,7.80
2022-12-26T17:55:21.184Z,7.70
2022-12-26T17:57:49.294Z,7.70
2022-12-26T18:00:19.574Z,7.70
2022-12-26T18:02:47.740Z,7.70
2022-12-26T18:05:18.047Z,7.60
2022-12-26T18:07:47.158Z,7.60
2022-12-26T18:10:19.118Z,7.50
2022-12-26T18:12:47.401Z,7.50
2022-12-26T18:15:15.826Z,7.40
2022-12-26T18:17:44.072Z,7.30
2022-12-26T18:20:18.882Z,7.30
2022-12-26T18:22:47.737Z,7.30
2022-12-26T18:25:17.529Z,7.30
2022-12-26T18:27:45.938Z,7.40
2022-12-26T18:30:17.777Z,7.40
2022-12-26T18:32:46.741Z,7.40
2022-12-26T18:35:15.353Z,7.40
2022-12-26T18:37:48.188Z,7.40
2022-12-26T18:40:28.343Z,7.50
2022-12-26T18:42:56.765Z,7.50
2022-12-26T18:45:25.849Z,7.50
2022-12-26T18:47:54.008Z,7.50
2022-12-26T18:50:22.430Z,7.50
2022-12-26T18:52:54.009Z,7.50
2022-12-26T18:55:22.697Z,7.50
2022-12-26T18:57:51.258Z,7.50
2022-12-26T19:00:21.691Z,7.50
2022-12-26T19:02:49.896Z,7.40
2022-12-26T19:05:20.533Z,7.40
2022-12-26T19:07:50.363Z,7.30
2022-12-26T19:10:22.002Z,7.20
2022-12-26T19:12:50.314Z,7.10
2022-12-26T19:15:18.476Z,7.00
2022-12-26T19:17:46.785Z,7.00
2022-12-26T19:20:20.187Z,6.90
2022-12-26T19:22:48.977Z,6.80
2022-12-26T19:25:20.192Z,6.80
2022-12-26T19:27:52.036Z,6.70
2022-12-26T19:30:21.245Z,6.70
2022-12-26T19:32:49.375Z,6.60
2022-12-26T19:35:18.174Z,6.60
2022-12-26T19:37:46.642Z,6.70
2022-12-26T19:40:21.201Z,6.70
2022-12-26T19:42:54.404Z,6.80
2022-12-26T19:45:22.468Z,6.90
2022-12-26T19:47:50.611Z,6.90
2022-12-26T19:50:19.105Z,7.00
2022-12-26T19:52:47.100Z,7.00
2022-12-26T19:55:15.189Z,7.00
2022-12-26T19:57:43.488Z,7.00
2022-12-26T20:00:13.671Z,7.00
2022-12-26T20:02:42.115Z,7.00
2022-12-26T20:05:10.728Z,7.10
2022-12-26T20:07:39.054Z,7.10
2022-12-26T20:10:07.598Z,7.10
2022-12-26T20:12:35.743Z,7.10
2022-12-26T20:15:03.792Z,7.10
2022-12-26T20:17:35.550Z,7.10
2022-12-26T20:20:03.628Z,7.10
2022-12-26T20:22:31.636Z,7.10
2022-12-26T20:25:00.140Z,7.10
2022-12-26T20:27:28.545Z,7.10
2022-12-26T20:29:56.640Z,7.10
2022-12-26T20:32:24.669Z,7.00
2022-12-26T20:34:54.774Z,7.00
2022-12-26T20:37:22.953Z,7.00
2022-12-26T20:39:50.956Z,6.90
2022-12-26T20:42:19.505Z,6.90
2022-12-26T20:44:47.723Z,6.90
2022-12-26T20:47:16.158Z,6.80
2022-12-26T20:49:44.136Z,6.70
2022-12-26T20:52:13.468Z,6.60
2022-12-26T20:54:41.472Z,6.50
2022-12-26T20:57:09.437Z,6.40
2022-12-26T20:59:37.417Z,6.20
2022-12-26T21:02:05.816Z,6.10
2022-12-26T21:04:34.107Z,6.00
2022-12-26T21:07:02.154Z,6.00
2022-12-26T21:09:31.669Z,6.20
2022-12-26T21:12:00.794Z,5.80
2022-12-26T21:14:28.773Z,5.80
2022-12-26T21:16:58.775Z,5.70
2022-12-26T21:19:29.353Z,5.60
2022-12-26T21:21:57.736Z,5.60
2022-12-26T21:24:28.792Z,5.50
2022-12-26T21:26:58.510Z,5.40
2022-12-26T21:29:28.475Z,5.30
2022-12-26T21:31:56.976Z,5.30
2022-12-26T21:34:28.955Z,5.20
2022-12-26T21:37:14.939Z,5.20
2022-12-26T21:39:43.518Z,5.20
2022-12-26T21:42:13.251Z,5.10
2022-12-26T21:44:41.326Z,5.10
2022-12-26T21:47:09.517Z,5.00
2022-12-26T21:49:38.195Z,5.00
2022-12-26T21:52:07.512Z,4.90
2022-12-26T21:54:53.140Z,4.90
2022-12-26T21:57:22.645Z,4.80
2022-12-26T22:00:00.007Z,4.90
2022-12-26T22:02:47.882Z,4.70
2022-12-26T22:05:16.638Z,4.70
2022-12-26T22:07:44.667Z,4.60
2022-12-26T22:10:34.430Z,4.60
2022-12-26T22:13:03.746Z,4.60
2022-12-26T22:15:49.426Z,4.50
2022-12-26T22:18:17.687Z,4.40
2022-12-26T22:20:46.146Z,4.40
2022-12-26T22:23:15.034Z,4.30
2022-12-26T22:25:43.213Z,4.30
2022-12-26T22:28:12.720Z,4.30
2022-12-26T22:30:47.475Z,4.20
2022-12-26T22:33:15.520Z,4.20
2022-12-26T22:35:43.813Z,4.20
2022-12-26T22:38:11.926Z,4.10
2022-12-26T22:40:39.950Z,4.10
2022-12-26T22:43:07.955Z,4.00
2022-12-26T22:45:41.218Z,3.90
2022-12-26T22:48:09.231Z,3.90
2022-12-26T22:50:37.305Z,3.80
2022-12-26T22:53:05.211Z,3.70
2022-12-26T22:55:33.182Z,3.70
2022-12-26T22:58:02.605Z,3.70
2022-12-26T23:00:30.751Z,3.70
2022-12-26T23:03:00.212Z,3.60
2022-12-26T23:05:28.739Z,3.60
2022-12-26T23:07:57.137Z,3.60
2022-12-26T23:10:26.011Z,3.60
2022-12-26T23:12:54.461Z,3.60
2022-12-26T23:15:24.600Z,3.60
2022-12-26T23:18:17.555Z,3.50
2022-12-26T23:21:05.347Z,3.50
2022-12-26T23:23:33.733Z,3.50
2022-12-26T23:26:02.324Z,3.50
2022-12-26T23:28:47.985Z,3.50
2022-12-26T23:31:16.387Z,3.40
2022-12-26T23:33:44.398Z,3.40
2022-12-26T23:36:13.834Z,3.30
2022-12-26T23:38:41.884Z,3.30
2022-12-26T23:41:09.892Z,3.30
2022-12-26T23:43:37.835Z,3.30
2022-12-26T23:46:10.321Z,3.30
2022-12-26T23:48:38.703Z,3.30
2022-12-26T23:51:08.382Z,3.30
2022-12-26T23:53:37.751Z,3.40
2022-12-26T23:56:08.241Z,3.40
2022-12-26T23:58:37.165Z,3.40
